sensor_id;sensor_type;location;lat;lon;timestamp;P1;P2;P0
50587;PMS7003;36546;50.516;30.826;2023-04-05T00:00:26;6.80;6.00;4.90
50587;PMS7003;36546;50.516;30.826;2023-04-05T00:01:30;7.50;6.40;4.50
50587;PMS7003;36546;50.516;30.826;2023-04-05T00:02:33;5.20;5.20;3.90
50587;PMS7003;36546;50.516;30.826;2023-04-05T00:03:35;7.20;6.20;4.90
50587;PMS7003;36546;50.516;30.826;2023-04-05T00:04:38;7.20;6.70;5.30
50587;PMS7003;36546;50.516;30.826;2023-04-05T00:05:40;6.40;6.40;4.90
50587;PMS7003;36546;50.516;30.826;2023-04-05T00:07:59;7.40;6.70;5.00
50587;PMS7003;36546;50.516;30.826;2023-04-05T00:09:03;8.00;7.00;5.30
50587;PMS7003;36546;50.516;30.826;2023-04-05T00:10:07;6.70;6.70;5.10
50587;PMS7003;36546;50.516;30.826;2023-04-05T00:11:10;7.30;7.00;5.20
50587;PMS7003;36546;50.516;30.826;2023-04-05T00:12:12;6.20;6.20;4.60
50587;PMS7003;36546;50.516;30.826;2023-04-05T00:13:15;6.90;6.20;4.80
50587;PMS7003;36546;50.516;30.826;2023-04-05T00:14:17;8.00;6.90;4.90
50587;PMS7003;36546;50.516;30.826;2023-04-05T00:15:20;8.20;7.60;5.60
50587;PMS7003;36546;50.516;30.826;2023-04-05T00:16:23;4.90;4.90;3.70
50587;PMS7003;36546;50.516;30.826;2023-04-05T00:17:26;7.80;7.40;5.50
50587;PMS7003;36546;50.516;30.826;2023-04-05T00:18:28;10.10;9.50;6.20
50587;PMS7003;36546;50.516;30.826;2023-04-05T00:19:30;8.60;7.90;5.80
50587;PMS7003;36546;50.516;30.826;2023-04-05T00:20:33;9.00;9.00;6.90
50587;PMS7003;36546;50.516;30.826;2023-04-05T00:21:35;9.80;9.40;7.30
50587;PMS7003;36546;50.516;30.826;2023-04-05T00:22:39;9.60;9.60;7.20
50587;PMS7003;36546;50.516;30.826;2023-04-05T00:23:42;9.60;9.40;7.50
50587;PMS7003;36546;50.516;30.826;2023-04-05T00:24:44;9.40;9.10;7.30
50587;PMS7003;36546;50.516;30.826;2023-04-05T00:25:46;8.80;7.50;6.00
50587;PMS7003;36546;50.516;30.826;2023-04-05T00:26:50;8.50;8.50;6.60
50587;PMS7003;36546;50.516;30.826;2023-04-05T00:27:52;7.60;7.40;5.80
50587;PMS7003;36546;50.516;30.826;2023-04-05T00:28:54;8.80;8.40;6.50
50587;PMS7003;36546;50.516;30.826;2023-04-05T00:29:57;8.20;7.70;6.80
50587;PMS7003;36546;50.516;30.826;2023-04-05T00:30:59;7.40;6.30;4.70
50587;PMS7003;36546;50.516;30.826;2023-04-05T00:32:01;7.40;7.10;5.90
50587;PMS7003;36546;50.516;30.826;2023-04-05T00:33:04;6.80;6.50;5.00
50587;PMS7003;36546;50.516;30.826;2023-04-05T00:34:07;7.00;6.10;4.80
50587;PMS7003;36546;50.516;30.826;2023-04-05T00:35:10;6.40;6.40;5.10
50587;PMS7003;36546;50.516;30.826;2023-04-05T00:36:13;6.30;6.30;4.90
50587;PMS7003;36546;50.516;30.826;2023-04-05T00:37:18;6.20;5.30;4.00
50587;PMS7003;36546;50.516;30.826;2023-04-05T00:38:23;6.10;5.50;3.80
50587;PMS7003;36546;50.516;30.826;2023-04-05T00:39:25;5.40;4.70;3.80
50587;PMS7003;36546;50.516;30.826;2023-04-05T00:40:28;7.60;6.70;5.00
50587;PMS7003;36546;50.516;30.826;2023-04-05T00:41:30;5.50;5.30;4.60
50587;PMS7003;36546;50.516;30.826;2023-04-05T00:42:32;6.40;5.30;4.00
50587;PMS7003;36546;50.516;30.826;2023-04-05T00:43:35;6.10;5.20;2.90
50587;PMS7003;36546;50.516;30.826;2023-04-05T00:44:38;4.27;4.27;3.18
50587;PMS7003;36546;50.516;30.826;2023-04-05T00:45:40;4.90;4.90;3.60
50587;PMS7003;36546;50.516;30.826;2023-04-05T00:46:43;6.80;5.70;4.50
50587;PMS7003;36546;50.516;30.826;2023-04-05T00:47:45;5.30;4.10;3.40
50587;PMS7003;36546;50.516;30.826;2023-04-05T00:48:48;5.20;5.20;3.80
50587;PMS7003;36546;50.516;30.826;2023-04-05T00:49:52;4.80;4.80;4.20
50587;PMS7003;36546;50.516;30.826;2023-04-05T00:50:56;5.10;4.10;3.50
50587;PMS7003;36546;50.516;30.826;2023-04-05T00:51:59;6.90;5.40;4.00
50587;PMS7003;36546;50.516;30.826;2023-04-05T00:53:02;6.50;4.70;3.80
50587;PMS7003;36546;50.516;30.826;2023-04-05T00:54:04;4.90;4.40;3.70
50587;PMS7003;36546;50.516;30.826;2023-04-05T00:55:08;4.30;4.30;3.20
50587;PMS7003;36546;50.516;30.826;2023-04-05T00:56:12;6.00;5.10;4.00
50587;PMS7003;36546;50.516;30.826;2023-04-05T00:57:15;5.70;4.80;3.90
50587;PMS7003;36546;50.516;30.826;2023-04-05T00:58:18;5.00;4.20;3.80
50587;PMS7003;36546;50.516;30.826;2023-04-05T00:59:21;5.20;5.20;4.10
50587;PMS7003;36546;50.516;30.826;2023-04-05T01:00:24;5.60;4.80;3.50
50587;PMS7003;36546;50.516;30.826;2023-04-05T01:01:27;4.45;3.64;3.00
50587;PMS7003;36546;50.516;30.826;2023-04-05T01:02:31;4.10;4.00;3.80
50587;PMS7003;36546;50.516;30.826;2023-04-05T01:03:35;4.90;4.40;3.40
50587;PMS7003;36546;50.516;30.826;2023-04-05T01:04:39;4.40;4.40;3.20
50587;PMS7003;36546;50.516;30.826;2023-04-05T01:05:43;3.80;3.20;2.40
50587;PMS7003;36546;50.516;30.826;2023-04-05T01:06:55;4.00;3.60;3.20
50587;PMS7003;36546;50.516;30.826;2023-04-05T01:10:50;4.10;3.00;2.50
50587;PMS7003;36546;50.516;30.826;2023-04-05T01:11:53;4.50;2.40;2.20
50587;PMS7003;36546;50.516;30.826;2023-04-05T01:12:59;4.00;3.50;2.90
50587;PMS7003;36546;50.516;30.826;2023-04-05T01:14:04;3.00;3.00;2.30
50587;PMS7003;36546;50.516;30.826;2023-04-05T01:15:06;3.40;2.80;2.40
50587;PMS7003;36546;50.516;30.826;2023-04-05T01:16:11;5.10;3.00;2.50
50587;PMS7003;36546;50.516;30.826;2023-04-05T01:17:14;3.90;3.70;2.60
50587;PMS7003;36546;50.516;30.826;2023-04-05T01:18:18;3.00;3.00;2.10
50587;PMS7003;36546;50.516;30.826;2023-04-05T01:19:20;4.20;3.30;2.00
50587;PMS7003;36546;50.516;30.826;2023-04-05T01:20:23;5.30;3.00;3.00
50587;PMS7003;36546;50.516;30.826;2023-04-05T01:23:52;2.90;2.90;2.50
50587;PMS7003;36546;50.516;30.826;2023-04-05T01:30:48;3.20;3.20;2.50
50587;PMS7003;36546;50.516;30.826;2023-04-05T01:32:10;3.00;3.00;2.20
50587;PMS7003;36546;50.516;30.826;2023-04-05T01:36:09;2.10;1.90;1.50
50587;PMS7003;36546;50.516;30.826;2023-04-05T01:37:13;3.80;2.90;2.20
50587;PMS7003;36546;50.516;30.826;2023-04-05T01:38:18;4.50;3.00;2.00
50587;PMS7003;36546;50.516;30.826;2023-04-05T01:39:23;3.00;3.00;2.00
50587;PMS7003;36546;50.516;30.826;2023-04-05T01:40:26;2.91;2.91;2.27
50587;PMS7003;36546;50.516;30.826;2023-04-05T01:41:30;2.00;2.00;1.00
50587;PMS7003;36546;50.516;30.826;2023-04-05T01:43:48;1.30;0.70;0.70
50587;PMS7003;36546;50.516;30.826;2023-04-05T01:44:51;2.80;2.10;2.00
50587;PMS7003;36546;50.516;30.826;2023-04-05T01:45:55;2.80;2.80;2.10
50587;PMS7003;36546;50.516;30.826;2023-04-05T01:46:57;3.60;3.00;2.40
50587;PMS7003;36546;50.516;30.826;2023-04-05T01:48:00;2.90;2.30;1.70
50587;PMS7003;36546;50.516;30.826;2023-04-05T01:49:02;3.70;3.20;2.00
50587;PMS7003;36546;50.516;30.826;2023-04-05T01:50:07;4.00;2.10;1.70
50587;PMS7003;36546;50.516;30.826;2023-04-05T01:51:10;3.80;3.00;2.40
50587;PMS7003;36546;50.516;30.826;2023-04-05T01:52:13;3.60;3.10;2.10
50587;PMS7003;36546;50.516;30.826;2023-04-05T01:53:15;2.10;2.10;1.80
50587;PMS7003;36546;50.516;30.826;2023-04-05T01:54:17;3.50;3.10;2.60
50587;PMS7003;36546;50.516;30.826;2023-04-05T01:55:19;3.50;2.50;2.20
50587;PMS7003;36546;50.516;30.826;2023-04-05T01:56:22;2.91;2.91;2.27
50587;PMS7003;36546;50.516;30.826;2023-04-05T01:57:24;3.20;2.50;2.00
50587;PMS7003;36546;50.516;30.826;2023-04-05T01:58:27;4.00;3.40;3.00
50587;PMS7003;36546;50.516;30.826;2023-04-05T01:59:31;2.60;2.60;2.00
50587;PMS7003;36546;50.516;30.826;2023-04-05T02:00:34;4.00;2.90;2.20
50587;PMS7003;36546;50.516;30.826;2023-04-05T02:01:36;2.30;2.30;2.10
50587;PMS7003;36546;50.516;30.826;2023-04-05T02:02:41;2.20;2.00;1.70
50587;PMS7003;36546;50.516;30.826;2023-04-05T02:03:44;2.70;2.40;2.00
50587;PMS7003;36546;50.516;30.826;2023-04-05T02:04:47;2.00;1.82;1.73
50587;PMS7003;36546;50.516;30.826;2023-04-05T02:05:49;2.00;2.00;1.00
50587;PMS7003;36546;50.516;30.826;2023-04-05T02:06:52;2.20;2.20;1.70
50587;PMS7003;36546;50.516;30.826;2023-04-05T02:07:54;1.60;1.60;1.50
50587;PMS7003;36546;50.516;30.826;2023-04-05T02:08:56;2.20;2.20;1.80
50587;PMS7003;36546;50.516;30.826;2023-04-05T02:09:59;3.70;3.30;2.30
50587;PMS7003;36546;50.516;30.826;2023-04-05T02:11:01;3.10;2.50;2.20
50587;PMS7003;36546;50.516;30.826;2023-04-05T02:12:04;2.10;2.00;2.00
50587;PMS7003;36546;50.516;30.826;2023-04-05T02:13:07;2.70;2.70;2.00
50587;PMS7003;36546;50.516;30.826;2023-04-05T02:14:10;2.80;2.80;2.00
50587;PMS7003;36546;50.516;30.826;2023-04-05T02:16:28;2.00;2.00;2.00
50587;PMS7003;36546;50.516;30.826;2023-04-05T02:17:31;3.80;2.90;2.30
50587;PMS7003;36546;50.516;30.826;2023-04-05T02:18:35;3.50;2.60;2.00
50587;PMS7003;36546;50.516;30.826;2023-04-05T02:19:38;2.80;2.80;2.40
50587;PMS7003;36546;50.516;30.826;2023-04-05T02:20:41;2.30;2.00;2.00
50587;PMS7003;36546;50.516;30.826;2023-04-05T02:21:44;3.18;2.45;2.00
50587;PMS7003;36546;50.516;30.826;2023-04-05T02:22:46;4.30;3.20;2.00
50587;PMS7003;36546;50.516;30.826;2023-04-05T02:23:48;3.60;3.00;2.60
50587;PMS7003;36546;50.516;30.826;2023-04-05T02:24:52;4.40;3.50;2.40
50587;PMS7003;36546;50.516;30.826;2023-04-05T02:25:54;2.30;2.30;1.80
50587;PMS7003;36546;50.516;30.826;2023-04-05T02:26:58;5.50;3.20;2.20
50587;PMS7003;36546;50.516;30.826;2023-04-05T02:28:00;2.90;2.90;2.20
50587;PMS7003;36546;50.516;30.826;2023-04-05T02:29:03;2.50;2.50;1.90
50587;PMS7003;36546;50.516;30.826;2023-04-05T02:30:06;3.10;3.10;2.20
50587;PMS7003;36546;50.516;30.826;2023-04-05T02:31:09;2.70;2.70;1.90
50587;PMS7003;36546;50.516;30.826;2023-04-05T02:32:14;3.80;3.40;2.60
50587;PMS7003;36546;50.516;30.826;2023-04-05T02:33:16;3.90;3.70;2.50
50587;PMS7003;36546;50.516;30.826;2023-04-05T02:34:19;4.40;4.00;2.60
50587;PMS7003;36546;50.516;30.826;2023-04-05T02:35:21;4.60;4.40;2.90
50587;PMS7003;36546;50.516;30.826;2023-04-05T02:36:24;3.10;2.40;1.70
50587;PMS7003;36546;50.516;30.826;2023-04-05T02:37:26;2.60;2.60;2.20
50587;PMS7003;36546;50.516;30.826;2023-04-05T02:38:28;3.20;3.20;2.60
50587;PMS7003;36546;50.516;30.826;2023-04-05T02:39:31;3.30;3.20;2.50
50587;PMS7003;36546;50.516;30.826;2023-04-05T02:40:34;3.09;3.09;2.27
50587;PMS7003;36546;50.516;30.826;2023-04-05T02:41:36;4.10;2.90;2.10
50587;PMS7003;36546;50.516;30.826;2023-04-05T02:42:38;4.80;3.50;2.80
50587;PMS7003;36546;50.516;30.826;2023-04-05T02:43:41;2.90;2.90;2.50
50587;PMS7003;36546;50.516;30.826;2023-04-05T02:44:43;4.50;3.70;2.90
50587;PMS7003;36546;50.516;30.826;2023-04-05T02:45:48;4.50;3.00;3.00
50587;PMS7003;36546;50.516;30.826;2023-04-05T02:48:06;3.00;3.00;2.20
50587;PMS7003;36546;50.516;30.826;2023-04-05T02:49:09;3.00;3.00;2.82
50587;PMS7003;36546;50.516;30.826;2023-04-05T02:50:13;1.60;1.60;1.50
50587;PMS7003;36546;50.516;30.826;2023-04-05T02:51:17;3.70;2.70;2.20
50587;PMS7003;36546;50.516;30.826;2023-04-05T02:52:21;3.30;3.30;2.40
50587;PMS7003;36546;50.516;30.826;2023-04-05T02:53:24;2.80;2.80;1.90
50587;PMS7003;36546;50.516;30.826;2023-04-05T02:54:28;2.50;2.50;2.40
50587;PMS7003;36546;50.516;30.826;2023-04-05T02:55:33;2.20;2.20;2.00
50587;PMS7003;36546;50.516;30.826;2023-04-05T02:56:36;2.70;2.70;2.00
50587;PMS7003;36546;50.516;30.826;2023-04-05T02:58:48;2.50;2.50;2.00
50587;PMS7003;36546;50.516;30.826;2023-04-05T02:59:52;2.90;2.20;2.00
50587;PMS7003;36546;50.516;30.826;2023-04-05T03:00:55;2.80;2.80;2.50
50587;PMS7003;36546;50.516;30.826;2023-04-05T03:02:02;2.80;2.30;1.80
50587;PMS7003;36546;50.516;30.826;2023-04-05T03:03:08;1.80;1.80;1.60
50587;PMS7003;36546;50.516;30.826;2023-04-05T03:04:13;2.30;2.30;1.70
50587;PMS7003;36546;50.516;30.826;2023-04-05T03:05:15;4.30;2.00;1.20
50587;PMS7003;36546;50.516;30.826;2023-04-05T03:06:19;3.80;3.40;3.00
50587;PMS7003;36546;50.516;30.826;2023-04-05T03:07:23;4.10;3.50;2.60
50587;PMS7003;36546;50.516;30.826;2023-04-05T03:08:26;2.80;2.00;2.00
50587;PMS7003;36546;50.516;30.826;2023-04-05T03:09:34;2.20;2.20;1.90
50587;PMS7003;36546;50.516;30.826;2023-04-05T03:10:38;2.70;2.70;2.50
50587;PMS7003;36546;50.516;30.826;2023-04-05T03:11:46;1.70;1.70;1.30
50587;PMS7003;36546;50.516;30.826;2023-04-05T03:12:50;2.10;2.10;2.00
50587;PMS7003;36546;50.516;30.826;2023-04-05T03:13:54;2.80;2.20;1.30
50587;PMS7003;36546;50.516;30.826;2023-04-05T03:15:14;2.00;1.80;1.30
50587;PMS7003;36546;50.516;30.826;2023-04-05T03:16:18;2.10;1.50;1.40
50587;PMS7003;36546;50.516;30.826;2023-04-05T03:17:21;2.90;2.90;1.90
50587;PMS7003;36546;50.516;30.826;2023-04-05T03:18:27;2.40;2.40;1.50
50587;PMS7003;36546;50.516;30.826;2023-04-05T03:19:32;3.00;2.00;1.50
50587;PMS7003;36546;50.516;30.826;2023-04-05T03:20:37;2.20;2.20;1.60
50587;PMS7003;36546;50.516;30.826;2023-04-05T03:21:40;3.00;2.50;2.00
50587;PMS7003;36546;50.516;30.826;2023-04-05T03:22:44;3.90;3.90;2.40
50587;PMS7003;36546;50.516;30.826;2023-04-05T03:23:47;2.82;2.45;2.09
50587;PMS7003;36546;50.516;30.826;2023-04-05T03:24:51;3.40;2.00;1.80
50587;PMS7003;36546;50.516;30.826;2023-04-05T03:26:00;3.20;2.30;2.00
50587;PMS7003;36546;50.516;30.826;2023-04-05T03:27:05;1.20;1.20;1.20
50587;PMS7003;36546;50.516;30.826;2023-04-05T03:28:09;2.30;2.30;1.70
50587;PMS7003;36546;50.516;30.826;2023-04-05T03:29:14;2.90;1.70;1.00
50587;PMS7003;36546;50.516;30.826;2023-04-05T03:30:26;3.00;3.00;2.20
50587;PMS7003;36546;50.516;30.826;2023-04-05T03:31:30;1.20;0.90;0.60
50587;PMS7003;36546;50.516;30.826;2023-04-05T03:32:34;3.10;3.10;2.50
50587;PMS7003;36546;50.516;30.826;2023-04-05T03:33:38;2.50;2.50;1.90
50587;PMS7003;36546;50.516;30.826;2023-04-05T03:34:40;3.50;3.00;2.50
50587;PMS7003;36546;50.516;30.826;2023-04-05T03:35:44;4.30;3.60;2.80
50587;PMS7003;36546;50.516;30.826;2023-04-05T03:36:48;4.50;3.60;2.50
50587;PMS7003;36546;50.516;30.826;2023-04-05T03:37:52;3.40;2.50;1.80
50587;PMS7003;36546;50.516;30.826;2023-04-05T03:38:56;2.90;2.90;2.50
50587;PMS7003;36546;50.516;30.826;2023-04-05T03:40:00;3.40;3.40;2.30
50587;PMS7003;36546;50.516;30.826;2023-04-05T03:41:02;3.30;2.40;2.30
50587;PMS7003;36546;50.516;30.826;2023-04-05T03:42:04;2.50;2.50;1.70
50587;PMS7003;36546;50.516;30.826;2023-04-05T03:43:06;2.50;2.50;2.30
50587;PMS7003;36546;50.516;30.826;2023-04-05T03:44:09;2.10;2.10;2.00
50587;PMS7003;36546;50.516;30.826;2023-04-05T03:45:12;2.40;2.20;1.60
50587;PMS7003;36546;50.516;30.826;2023-04-05T03:46:18;3.30;2.80;2.10
50587;PMS7003;36546;50.516;30.826;2023-04-05T03:47:21;3.80;2.20;2.10
50587;PMS7003;36546;50.516;30.826;2023-04-05T03:48:24;2.70;2.70;2.00
50587;PMS7003;36546;50.516;30.826;2023-04-05T03:49:27;3.20;2.80;2.00
50587;PMS7003;36546;50.516;30.826;2023-04-05T03:50:29;4.50;4.00;2.90
50587;PMS7003;36546;50.516;30.826;2023-04-05T03:51:31;2.00;2.00;2.00
50587;PMS7003;36546;50.516;30.826;2023-04-05T03:52:33;0.00;0.00;0.00
50587;PMS7003;36546;50.516;30.826;2023-04-05T03:53:37;3.90;3.80;2.90
50587;PMS7003;36546;50.516;30.826;2023-04-05T03:54:40;3.10;3.10;2.20
50587;PMS7003;36546;50.516;30.826;2023-04-05T03:55:42;2.64;2.18;2.00
50587;PMS7003;36546;50.516;30.826;2023-04-05T03:56:45;2.60;2.60;2.00
50587;PMS7003;36546;50.516;30.826;2023-04-05T03:57:49;2.00;1.80;0.50
50587;PMS7003;36546;50.516;30.826;2023-04-05T03:58:54;2.40;2.40;2.00
50587;PMS7003;36546;50.516;30.826;2023-04-05T03:59:58;3.60;3.00;2.40
50587;PMS7003;36546;50.516;30.826;2023-04-05T04:01:02;3.20;3.20;2.90
50587;PMS7003;36546;50.516;30.826;2023-04-05T04:02:05;4.00;2.50;2.00
50587;PMS7003;36546;50.516;30.826;2023-04-05T04:03:07;3.90;3.40;2.60
50587;PMS7003;36546;50.516;30.826;2023-04-05T04:04:11;4.00;3.20;2.80
50587;PMS7003;36546;50.516;30.826;2023-04-05T04:05:16;5.50;4.30;3.40
50587;PMS7003;36546;50.516;30.826;2023-04-05T04:06:20;5.40;3.50;3.00
50587;PMS7003;36546;50.516;30.826;2023-04-05T04:07:22;3.60;3.60;2.50
50587;PMS7003;36546;50.516;30.826;2023-04-05T04:08:25;4.50;3.50;2.70
50587;PMS7003;36546;50.516;30.826;2023-04-05T04:09:28;3.20;2.90;2.50
50587;PMS7003;36546;50.516;30.826;2023-04-05T04:10:33;5.20;3.60;2.60
50587;PMS7003;36546;50.516;30.826;2023-04-05T04:11:37;4.60;4.10;3.00
50587;PMS7003;36546;50.516;30.826;2023-04-05T04:12:41;7.00;5.10;3.40
50587;PMS7003;36546;50.516;30.826;2023-04-05T04:13:43;5.45;4.82;3.55
50587;PMS7003;36546;50.516;30.826;2023-04-05T04:14:50;6.20;4.40;3.30
50587;PMS7003;36546;50.516;30.826;2023-04-05T04:16:00;5.80;4.90;4.00
50587;PMS7003;36546;50.516;30.826;2023-04-05T04:17:30;4.90;4.10;3.30
50587;PMS7003;36546;50.516;30.826;2023-04-05T04:18:54;6.50;5.70;4.20
50587;PMS7003;36546;50.516;30.826;2023-04-05T04:20:04;6.00;5.60;4.20
50587;PMS7003;36546;50.516;30.826;2023-04-05T04:21:28;6.20;5.80;3.90
50587;PMS7003;36546;50.516;30.826;2023-04-05T04:22:38;5.40;4.10;2.30
50587;PMS7003;36546;50.516;30.826;2023-04-05T04:23:51;5.00;4.20;3.40
50587;PMS7003;36546;50.516;30.826;2023-04-05T04:25:01;5.60;4.90;2.90
50587;PMS7003;36546;50.516;30.826;2023-04-05T04:26:11;6.10;5.60;4.60
50587;PMS7003;36546;50.516;30.826;2023-04-05T04:27:21;6.20;5.70;4.00
50587;PMS7003;36546;50.516;30.826;2023-04-05T04:28:37;5.20;4.50;3.30
50587;PMS7003;36546;50.516;30.826;2023-04-05T04:29:47;5.00;5.00;4.00
50587;PMS7003;36546;50.516;30.826;2023-04-05T04:31:01;5.30;4.90;3.60
50587;PMS7003;36546;50.516;30.826;2023-04-05T04:32:07;3.80;2.70;2.40
50587;PMS7003;36546;50.516;30.826;2023-04-05T04:33:16;6.20;3.90;3.20
50587;PMS7003;36546;50.516;30.826;2023-04-05T04:34:26;4.10;4.10;3.20
50587;PMS7003;36546;50.516;30.826;2023-04-05T04:35:42;5.20;4.60;3.20
50587;PMS7003;36546;50.516;30.826;2023-04-05T04:36:54;3.40;2.80;2.30
50587;PMS7003;36546;50.516;30.826;2023-04-05T04:38:05;4.00;4.00;3.00
50587;PMS7003;36546;50.516;30.826;2023-04-05T04:39:13;4.90;4.00;2.90
50587;PMS7003;36546;50.516;30.826;2023-04-05T04:40:21;5.10;4.30;3.00
50587;PMS7003;36546;50.516;30.826;2023-04-05T04:41:36;4.50;3.30;2.80
50587;PMS7003;36546;50.516;30.826;2023-04-05T04:42:57;3.80;3.80;2.70
50587;PMS7003;36546;50.516;30.826;2023-04-05T04:44:14;4.40;3.00;2.10
50587;PMS7003;36546;50.516;30.826;2023-04-05T04:45:34;3.60;3.20;2.50
50587;PMS7003;36546;50.516;30.826;2023-04-05T04:46:43;3.90;3.40;3.20
50587;PMS7003;36546;50.516;30.826;2023-04-05T04:47:57;3.70;3.70;3.10
50587;PMS7003;36546;50.516;30.826;2023-04-05T04:49:07;6.70;6.30;4.60
50587;PMS7003;36546;50.516;30.826;2023-04-05T04:50:15;7.10;4.90;4.20
50587;PMS7003;36546;50.516;30.826;2023-04-05T04:51:18;4.60;3.90;3.40
50587;PMS7003;36546;50.516;30.826;2023-04-05T04:52:20;5.00;4.40;3.20
50587;PMS7003;36546;50.516;30.826;2023-04-05T04:53:23;5.45;5.45;3.91
50587;PMS7003;36546;50.516;30.826;2023-04-05T04:54:27;4.00;3.50;2.90
50587;PMS7003;36546;50.516;30.826;2023-04-05T04:55:29;5.40;4.20;3.10
50587;PMS7003;36546;50.516;30.826;2023-04-05T04:56:32;5.30;4.00;3.00
50587;PMS7003;36546;50.516;30.826;2023-04-05T04:57:35;5.00;4.40;3.50
50587;PMS7003;36546;50.516;30.826;2023-04-05T04:58:37;4.10;4.10;3.20
50587;PMS7003;36546;50.516;30.826;2023-04-05T04:59:42;3.30;3.30;2.70
50587;PMS7003;36546;50.516;30.826;2023-04-05T05:00:44;4.00;4.00;3.00
50587;PMS7003;36546;50.516;30.826;2023-04-05T05:01:46;5.20;4.00;3.30
50587;PMS7003;36546;50.516;30.826;2023-04-05T05:02:49;4.70;4.00;3.20
50587;PMS7003;36546;50.516;30.826;2023-04-05T05:03:52;3.50;3.50;2.70
50587;PMS7003;36546;50.516;30.826;2023-04-05T05:04:56;3.70;3.70;2.70
50587;PMS7003;36546;50.516;30.826;2023-04-05T05:05:59;4.10;3.70;2.90
50587;PMS7003;36546;50.516;30.826;2023-04-05T05:07:03;5.20;4.60;3.00
50587;PMS7003;36546;50.516;30.826;2023-04-05T05:08:08;5.00;4.70;3.80
50587;PMS7003;36546;50.516;30.826;2023-04-05T05:09:13;4.30;4.30;3.00
50587;PMS7003;36546;50.516;30.826;2023-04-05T05:10:21;4.50;4.10;3.30
50587;PMS7003;36546;50.516;30.826;2023-04-05T05:11:23;3.60;2.90;2.50
50587;PMS7003;36546;50.516;30.826;2023-04-05T05:12:25;5.10;4.30;2.80
50587;PMS7003;36546;50.516;30.826;2023-04-05T05:13:27;5.30;4.80;3.20
50587;PMS7003;36546;50.516;30.826;2023-04-05T05:14:32;3.60;3.60;2.60
50587;PMS7003;36546;50.516;30.826;2023-04-05T05:15:35;5.20;4.40;3.40
50587;PMS7003;36546;50.516;30.826;2023-04-05T05:16:39;5.60;4.50;3.50
50587;PMS7003;36546;50.516;30.826;2023-04-05T05:17:41;6.30;5.60;3.90
50587;PMS7003;36546;50.516;30.826;2023-04-05T05:18:44;6.80;5.00;3.40
50587;PMS7003;36546;50.516;30.826;2023-04-05T05:19:47;5.40;4.70;4.10
50587;PMS7003;36546;50.516;30.826;2023-04-05T05:20:49;4.50;4.20;3.60
50587;PMS7003;36546;50.516;30.826;2023-04-05T05:21:52;3.90;3.20;2.90
50587;PMS7003;36546;50.516;30.826;2023-04-05T05:22:54;6.00;4.40;3.50
50587;PMS7003;36546;50.516;30.826;2023-04-05T05:23:57;5.40;4.90;3.50
50587;PMS7003;36546;50.516;30.826;2023-04-05T05:24:59;5.30;4.20;3.10
50587;PMS7003;36546;50.516;30.826;2023-04-05T05:26:01;5.20;5.20;3.90
50587;PMS7003;36546;50.516;30.826;2023-04-05T05:27:04;4.90;4.90;3.60
50587;PMS7003;36546;50.516;30.826;2023-04-05T05:28:06;5.70;4.80;4.00
50587;PMS7003;36546;50.516;30.826;2023-04-05T05:29:08;5.00;5.00;3.22
50587;PMS7003;36546;50.516;30.826;2023-04-05T05:30:13;4.90;4.90;3.90
50587;PMS7003;36546;50.516;30.826;2023-04-05T05:31:16;6.70;5.70;4.90
50587;PMS7003;36546;50.516;30.826;2023-04-05T05:32:18;7.90;6.50;4.30
50587;PMS7003;36546;50.516;30.826;2023-04-05T05:33:20;6.00;5.78;4.67
50587;PMS7003;36546;50.516;30.826;2023-04-05T05:34:22;7.50;6.40;5.00
50587;PMS7003;36546;50.516;30.826;2023-04-05T05:35:26;8.40;6.30;5.10
50587;PMS7003;36546;50.516;30.826;2023-04-05T05:36:29;9.00;7.30;5.20
50587;PMS7003;36546;50.516;30.826;2023-04-05T05:37:31;10.40;8.00;5.60
50587;PMS7003;36546;50.516;30.826;2023-04-05T05:38:35;9.00;8.00;6.30
50587;PMS7003;36546;50.516;30.826;2023-04-05T05:39:37;8.30;8.30;6.40
50587;PMS7003;36546;50.516;30.826;2023-04-05T05:40:39;9.00;7.70;6.20
50587;PMS7003;36546;50.516;30.826;2023-04-05T05:41:43;7.80;7.40;4.70
50587;PMS7003;36546;50.516;30.826;2023-04-05T05:42:45;5.60;5.60;4.20
50587;PMS7003;36546;50.516;30.826;2023-04-05T05:43:49;9.60;8.60;5.60
50587;PMS7003;36546;50.516;30.826;2023-04-05T05:44:51;8.60;7.60;5.20
50587;PMS7003;36546;50.516;30.826;2023-04-05T05:45:54;7.00;6.60;4.40
50587;PMS7003;36546;50.516;30.826;2023-04-05T05:46:56;10.80;9.00;6.00
50587;PMS7003;36546;50.516;30.826;2023-04-05T05:47:59;8.20;7.40;5.40
50587;PMS7003;36546;50.516;30.826;2023-04-05T05:49:01;7.10;6.60;5.10
50587;PMS7003;36546;50.516;30.826;2023-04-05T05:50:04;6.70;6.70;4.80
50587;PMS7003;36546;50.516;30.826;2023-04-05T05:51:07;5.80;5.40;3.90
50587;PMS7003;36546;50.516;30.826;2023-04-05T05:52:09;7.30;7.30;5.10
50587;PMS7003;36546;50.516;30.826;2023-04-05T05:53:12;5.50;5.50;5.00
50587;PMS7003;36546;50.516;30.826;2023-04-05T05:54:14;7.80;7.10;5.40
50587;PMS7003;36546;50.516;30.826;2023-04-05T05:55:18;8.60;7.20;5.00
50587;PMS7003;36546;50.516;30.826;2023-04-05T05:56:20;3.40;3.20;1.20
50587;PMS7003;36546;50.516;30.826;2023-04-05T05:57:22;9.80;7.30;6.30
50587;PMS7003;36546;50.516;30.826;2023-04-05T05:58:25;9.00;6.80;5.80
50587;PMS7003;36546;50.516;30.826;2023-04-05T05:59:27;6.70;6.70;5.40
50587;PMS7003;36546;50.516;30.826;2023-04-05T06:00:30;9.00;7.45;4.91
50587;PMS7003;36546;50.516;30.826;2023-04-05T06:01:32;9.00;6.90;5.40
50587;PMS7003;36546;50.516;30.826;2023-04-05T06:02:34;7.80;6.30;5.30
50587;PMS7003;36546;50.516;30.826;2023-04-05T06:03:37;7.90;6.80;5.30
50587;PMS7003;36546;50.516;30.826;2023-04-05T06:04:39;8.50;7.60;5.30
50587;PMS7003;36546;50.516;30.826;2023-04-05T06:05:49;7.20;7.20;5.40
50587;PMS7003;36546;50.516;30.826;2023-04-05T06:06:59;6.00;6.00;4.50
50587;PMS7003;36546;50.516;30.826;2023-04-05T06:08:01;7.82;7.18;5.00
50587;PMS7003;36546;50.516;30.826;2023-04-05T06:09:04;7.60;6.80;5.60
50587;PMS7003;36546;50.516;30.826;2023-04-05T06:10:07;6.82;6.82;4.64
50587;PMS7003;36546;50.516;30.826;2023-04-05T06:11:19;7.60;7.60;5.20
50587;PMS7003;36546;50.516;30.826;2023-04-05T06:12:28;7.90;6.90;5.80
50587;PMS7003;36546;50.516;30.826;2023-04-05T06:13:30;4.40;4.40;2.80
50587;PMS7003;36546;50.516;30.826;2023-04-05T06:14:33;6.40;6.00;4.90
50587;PMS7003;36546;50.516;30.826;2023-04-05T06:15:35;6.70;6.00;4.80
50587;PMS7003;36546;50.516;30.826;2023-04-05T06:16:38;7.00;5.40;2.70
50587;PMS7003;36546;50.516;30.826;2023-04-05T06:17:40;8.40;6.60;4.90
50587;PMS7003;36546;50.516;30.826;2023-04-05T06:18:43;7.30;6.60;5.00
50587;PMS7003;36546;50.516;30.826;2023-04-05T06:19:45;7.55;7.00;5.45
50587;PMS7003;36546;50.516;30.826;2023-04-05T06:20:48;8.90;8.90;6.70
50587;PMS7003;36546;50.516;30.826;2023-04-05T06:21:50;9.50;8.80;7.00
50587;PMS7003;36546;50.516;30.826;2023-04-05T06:22:52;8.90;8.40;6.40
50587;PMS7003;36546;50.516;30.826;2023-04-05T06:23:54;9.00;7.20;6.20
50587;PMS7003;36546;50.516;30.826;2023-04-05T06:24:56;10.30;9.10;6.10
50587;PMS7003;36546;50.516;30.826;2023-04-05T06:25:59;9.27;7.18;5.82
50587;PMS7003;36546;50.516;30.826;2023-04-05T06:27:01;5.30;4.70;3.30
50587;PMS7003;36546;50.516;30.826;2023-04-05T06:28:04;7.00;6.80;4.80
50587;PMS7003;36546;50.516;30.826;2023-04-05T06:29:08;6.50;5.90;4.60
50587;PMS7003;36546;50.516;30.826;2023-04-05T06:30:11;7.80;7.50;4.90